메인 페이지
METAR-TAF:

METAR-TAF

공항 :

카불, 아프가니스탄

카불 국제공항

위도: 34-38N, 경도: 069-12E, 고도: 1789m

현재 날씨관측

예보는 12 시간 28분 전, 14:50시(UTC)에 발표되었습니다.
북북서7kt
온도 6°C
습도 87%
기압 1019 hPa
시정 10km 이상
고도 3000ft 상공 구름 조금
고도 7000ft 상공 구름 많음

METAR: OAKB 201450Z 33007KT 9999 FEW030 BKN070 06/04 Q1019 RESHRA NOSIG RMK A3011 BLU BLU

시각: 07:48 (03:18 UTC)

예보

예보는 13 시간 43분 전, 13:35시(UTC)에 발표되었습니다.
예보 대상 시간: 20일 13시부터 21일 12시까지 (UTC)
동남동12kt
시정: 8000m
고도 3000ft 상공 구름 보통
고도 5000ft 상공 구름 많음
약한소나기
일시적
20일 13시부터 20일 17시까지 (UTC)
여러 방향의 바람 15kt, 순간 최대 풍속 30kt
시정: 3000m
고도 3000ft 상공 구름 보통, 적란운.
고도 6000ft 상공 구름 많음
뇌우, 약한비, 우박
전환 중
20일 21시부터 20일 23시까지 (UTC)
여러 방향의 바람 2kt
시정: 2500m
고도 10000ft 상공 구름 보통
연기
일시적
21일 03시부터 21일 05시까지 (UTC)
시정: 1400m
전환 중
21일 06시부터 21일 08시까지 (UTC)
시정: 7000m

TAF: OAKB 201335Z 2013/2112 12012KT 8000 -SHRA SCT030 BKN050 TEMPO 2013/2017 VRB15G30KT 3000 -TSRAGR SCT030CB BKN060 BECMG 2021/2023 VRB02KT 2500 FU SCT100 TEMPO 2103/2105 1400 BECMG 2106/2108 7000 NSW

4,000개 이상의 공항 관측 자료 및 예보 (METAR 및 TAF 보고).

지도상에서 검색 가능한 기상관측소가 노란 점과 빨간 점으로 표시되어 있습니다.

기상관측소 명을 보려면 표시 위로 마우스를 이동하세요.

날씨 관측과 예보를 보려면 클릭하세요.

지도 변경 : 확대하려면 엑스 표시가 있는 녹색 버튼, 축소하려면 빼기 표시가 있는 녹색 버튼, 다음 페이지의 지도를 보려면 녹색 화살표를 클릭하세요.


METAR-TAF: